sensor_id;sensor_type;location;lat;lon;timestamp;P1;durP1;ratioP1;P2;durP2;ratioP2
12459;SDS011;6295;49.452;8.466;2023-06-04T03:14:22;3.90;;;2.13;;
12459;SDS011;6295;49.452;8.466;2023-06-04T03:18:32;2.87;;;2.17;;
12459;SDS011;6295;49.452;8.466;2023-06-04T03:22:34;2.97;;;2.10;;
12459;SDS011;6295;49.452;8.466;2023-06-04T03:26:36;3.53;;;2.17;;
12459;SDS011;6295;49.452;8.466;2023-06-04T03:30:41;4.67;;;2.20;;
12459;SDS011;6295;49.452;8.466;2023-06-04T03:34:43;4.30;;;2.20;;
12459;SDS011;6295;49.452;8.466;2023-06-04T03:38:45;3.80;;;2.00;;
12459;SDS011;6295;49.452;8.466;2023-06-04T03:42:47;3.27;;;2.07;;
12459;SDS011;6295;49.452;8.466;2023-06-04T03:46:51;3.97;;;2.00;;
12459;SDS011;6295;49.452;8.466;2023-06-04T03:50:53;3.67;;;2.30;;
12459;SDS011;6295;49.452;8.466;2023-06-04T03:54:55;4.17;;;2.10;;
12459;SDS011;6295;49.452;8.466;2023-06-04T03:58:58;3.73;;;2.00;;
12459;SDS011;6295;49.452;8.466;2023-06-04T04:03:02;3.70;;;2.10;;
12459;SDS011;6295;49.452;8.466;2023-06-04T04:07:04;4.23;;;2.20;;
12459;SDS011;6295;49.452;8.466;2023-06-04T04:11:06;2.40;;;1.90;;
12459;SDS011;6295;49.452;8.466;2023-06-04T04:15:08;4.70;;;2.00;;
12459;SDS011;6295;49.452;8.466;2023-06-04T04:19:12;6.03;;;2.30;;
12459;SDS011;6295;49.452;8.466;2023-06-04T04:23:14;2.40;;;2.00;;
12459;SDS011;6295;49.452;8.466;2023-06-04T04:27:17;3.33;;;2.17;;
12459;SDS011;6295;49.452;8.466;2023-06-04T04:31:19;2.93;;;1.87;;
12459;SDS011;6295;49.452;8.466;2023-06-04T04:35:23;6.17;;;2.10;;
12459;SDS011;6295;49.452;8.466;2023-06-04T04:39:26;2.30;;;2.10;;
12459;SDS011;6295;49.452;8.466;2023-06-04T04:43:29;2.33;;;1.90;;
12459;SDS011;6295;49.452;8.466;2023-06-04T04:47:33;2.50;;;1.80;;
12459;SDS011;6295;49.452;8.466;2023-06-04T04:51:37;2.90;;;1.90;;
12459;SDS011;6295;49.452;8.466;2023-06-04T04:55:39;2.57;;;1.93;;
12459;SDS011;6295;49.452;8.466;2023-06-04T04:59:41;3.90;;;2.00;;
12459;SDS011;6295;49.452;8.466;2023-06-04T05:03:43;3.50;;;1.90;;
12459;SDS011;6295;49.452;8.466;2023-06-04T05:07:47;2.47;;;2.07;;
12459;SDS011;6295;49.452;8.466;2023-06-04T05:11:49;2.37;;;1.80;;
12459;SDS011;6295;49.452;8.466;2023-06-04T05:15:51;3.10;;;1.80;;
12459;SDS011;6295;49.452;8.466;2023-06-04T05:19:53;3.37;;;1.87;;
12459;SDS011;6295;49.452;8.466;2023-06-04T05:24:04;2.63;;;1.73;;
12459;SDS011;6295;49.452;8.466;2023-06-04T05:28:06;2.40;;;1.80;;
12459;SDS011;6295;49.452;8.466;2023-06-04T05:32:08;3.80;;;2.00;;
12459;SDS011;6295;49.452;8.466;2023-06-04T05:36:11;2.53;;;1.80;;
12459;SDS011;6295;49.452;8.466;2023-06-04T05:40:14;2.63;;;1.80;;
12459;SDS011;6295;49.452;8.466;2023-06-04T05:44:16;2.93;;;1.80;;
12459;SDS011;6295;49.452;8.466;2023-06-04T05:48:18;2.23;;;1.80;;
12459;SDS011;6295;49.452;8.466;2023-06-04T05:52:21;2.83;;;1.67;;
12459;SDS011;6295;49.452;8.466;2023-06-04T05:56:24;3.10;;;1.90;;
12459;SDS011;6295;49.452;8.466;2023-06-04T06:00:27;3.80;;;1.73;;
12459;SDS011;6295;49.452;8.466;2023-06-04T06:04:29;3.00;;;1.83;;
12459;SDS011;6295;49.452;8.466;2023-06-04T06:08:31;2.67;;;1.80;;
12459;SDS011;6295;49.452;8.466;2023-06-04T06:12:38;3.33;;;1.70;;
12459;SDS011;6295;49.452;8.466;2023-06-04T06:16:42;3.20;;;1.60;;
12459;SDS011;6295;49.452;8.466;2023-06-04T06:20:47;2.10;;;1.73;;
12459;SDS011;6295;49.452;8.466;2023-06-04T06:24:50;3.17;;;1.90;;
12459;SDS011;6295;49.452;8.466;2023-06-04T06:28:56;2.23;;;2.03;;
12459;SDS011;6295;49.452;8.466;2023-06-04T06:32:58;1.90;;;1.70;;
12459;SDS011;6295;49.452;8.466;2023-06-04T06:37:00;2.93;;;1.93;;
12459;SDS011;6295;49.452;8.466;2023-06-04T06:41:03;2.07;;;1.87;;
12459;SDS011;6295;49.452;8.466;2023-06-04T06:45:07;2.87;;;1.80;;
12459;SDS011;6295;49.452;8.466;2023-06-04T06:49:10;3.57;;;1.77;;
12459;SDS011;6295;49.452;8.466;2023-06-04T06:53:12;2.57;;;1.70;;
12459;SDS011;6295;49.452;8.466;2023-06-04T06:57:14;4.43;;;1.73;;
12459;SDS011;6295;49.452;8.466;2023-06-04T07:01:18;2.27;;;1.87;;
12459;SDS011;6295;49.452;8.466;2023-06-04T07:05:21;2.47;;;1.87;;
12459;SDS011;6295;49.452;8.466;2023-06-04T07:09:23;2.50;;;1.90;;
12459;SDS011;6295;49.452;8.466;2023-06-04T07:13:25;2.43;;;1.83;;
12459;SDS011;6295;49.452;8.466;2023-06-04T07:17:29;2.07;;;1.87;;
12459;SDS011;6295;49.452;8.466;2023-06-04T07:21:31;2.77;;;1.93;;
12459;SDS011;6295;49.452;8.466;2023-06-04T07:25:33;2.53;;;1.70;;
12459;SDS011;6295;49.452;8.466;2023-06-04T07:29:35;2.37;;;1.77;;
12459;SDS011;6295;49.452;8.466;2023-06-04T07:33:39;2.20;;;1.80;;
12459;SDS011;6295;49.452;8.466;2023-06-04T07:37:43;3.63;;;1.80;;
12459;SDS011;6295;49.452;8.466;2023-06-04T07:41:47;2.20;;;1.97;;
12459;SDS011;6295;49.452;8.466;2023-06-04T07:45:50;3.20;;;1.80;;
12459;SDS011;6295;49.452;8.466;2023-06-04T07:49:53;1.80;;;1.70;;
12459;SDS011;6295;49.452;8.466;2023-06-04T07:53:55;1.63;;;1.53;;
12459;SDS011;6295;49.452;8.466;2023-06-04T07:57:57;4.33;;;2.13;;
12459;SDS011;6295;49.452;8.466;2023-06-04T08:02:00;2.23;;;1.70;;
12459;SDS011;6295;49.452;8.466;2023-06-04T08:06:05;2.03;;;1.60;;
12459;SDS011;6295;49.452;8.466;2023-06-04T08:10:09;2.07;;;1.80;;
12459;SDS011;6295;49.452;8.466;2023-06-04T08:14:11;2.20;;;1.90;;
12459;SDS011;6295;49.452;8.466;2023-06-04T08:18:14;2.27;;;1.90;;
12459;SDS011;6295;49.452;8.466;2023-06-04T08:22:17;1.93;;;1.73;;
12459;SDS011;6295;49.452;8.466;2023-06-04T08:26:19;3.77;;;2.17;;
12459;SDS011;6295;49.452;8.466;2023-06-04T08:30:22;4.53;;;2.07;;
12459;SDS011;6295;49.452;8.466;2023-06-04T08:34:26;3.23;;;2.23;;
12459;SDS011;6295;49.452;8.466;2023-06-04T08:38:30;2.40;;;2.00;;
12459;SDS011;6295;49.452;8.466;2023-06-04T08:42:34;4.77;;;2.20;;
12459;SDS011;6295;49.452;8.466;2023-06-04T08:46:41;3.80;;;2.10;;
12459;SDS011;6295;49.452;8.466;2023-06-04T08:50:45;3.77;;;2.30;;
12459;SDS011;6295;49.452;8.466;2023-06-04T08:54:49;2.70;;;2.27;;
12459;SDS011;6295;49.452;8.466;2023-06-04T08:58:53;4.30;;;2.07;;
12459;SDS011;6295;49.452;8.466;2023-06-04T09:03:01;3.70;;;2.17;;
12459;SDS011;6295;49.452;8.466;2023-06-04T09:07:04;2.63;;;2.20;;
12459;SDS011;6295;49.452;8.466;2023-06-04T09:11:09;2.47;;;2.13;;
12459;SDS011;6295;49.452;8.466;2023-06-04T09:15:15;2.80;;;2.37;;
12459;SDS011;6295;49.452;8.466;2023-06-04T09:19:17;3.17;;;2.00;;
12459;SDS011;6295;49.452;8.466;2023-06-04T09:23:20;4.23;;;2.00;;
12459;SDS011;6295;49.452;8.466;2023-06-04T09:27:24;2.87;;;2.20;;
12459;SDS011;6295;49.452;8.466;2023-06-04T09:31:28;3.13;;;2.20;;
12459;SDS011;6295;49.452;8.466;2023-06-04T09:35:36;3.13;;;2.00;;
12459;SDS011;6295;49.452;8.466;2023-06-04T09:39:39;4.20;;;2.40;;
12459;SDS011;6295;49.452;8.466;2023-06-04T09:43:42;2.80;;;1.97;;
12459;SDS011;6295;49.452;8.466;2023-06-04T09:47:44;2.70;;;2.47;;
12459;SDS011;6295;49.452;8.466;2023-06-04T09:51:48;2.50;;;2.30;;
12459;SDS011;6295;49.452;8.466;2023-06-04T09:55:56;4.57;;;2.13;;
12459;SDS011;6295;49.452;8.466;2023-06-04T10:00:00;3.00;;;2.00;;
12459;SDS011;6295;49.452;8.466;2023-06-04T10:04:08;3.90;;;2.27;;
12459;SDS011;6295;49.452;8.466;2023-06-04T10:08:11;2.20;;;2.00;;
12459;SDS011;6295;49.452;8.466;2023-06-04T10:12:20;4.37;;;2.20;;
12459;SDS011;6295;49.452;8.466;2023-06-04T10:16:28;4.70;;;2.20;;
12459;SDS011;6295;49.452;8.466;2023-06-04T10:20:32;3.43;;;2.40;;
12459;SDS011;6295;49.452;8.466;2023-06-04T10:24:35;4.93;;;2.23;;
12459;SDS011;6295;49.452;8.466;2023-06-04T10:28:37;5.80;;;2.10;;
12459;SDS011;6295;49.452;8.466;2023-06-04T10:32:41;5.93;;;3.47;;
12459;SDS011;6295;49.452;8.466;2023-06-04T10:36:43;2.87;;;2.37;;
12459;SDS011;6295;49.452;8.466;2023-06-04T10:40:46;6.37;;;4.83;;
12459;SDS011;6295;49.452;8.466;2023-06-04T10:44:49;6.07;;;2.90;;
12459;SDS011;6295;49.452;8.466;2023-06-04T10:48:53;3.57;;;2.50;;
12459;SDS011;6295;49.452;8.466;2023-06-04T10:52:56;3.43;;;2.30;;
12459;SDS011;6295;49.452;8.466;2023-06-04T10:56:58;5.23;;;2.40;;
12459;SDS011;6295;49.452;8.466;2023-06-04T11:01:22;4.67;;;2.40;;
12459;SDS011;6295;49.452;8.466;2023-06-04T11:05:34;2.80;;;2.30;;
12459;SDS011;6295;49.452;8.466;2023-06-04T11:09:37;2.67;;;2.30;;
12459;SDS011;6295;49.452;8.466;2023-06-04T11:13:39;3.13;;;2.50;;
12459;SDS011;6295;49.452;8.466;2023-06-04T11:17:51;4.93;;;2.67;;
12459;SDS011;6295;49.452;8.466;2023-06-04T11:21:55;8.43;;;2.30;;
12459;SDS011;6295;49.452;8.466;2023-06-04T11:25:57;5.27;;;2.50;;
12459;SDS011;6295;49.452;8.466;2023-06-04T11:30:00;4.27;;;2.40;;
12459;SDS011;6295;49.452;8.466;2023-06-04T11:34:03;4.70;;;2.40;;
12459;SDS011;6295;49.452;8.466;2023-06-04T11:38:07;3.60;;;2.60;;
12459;SDS011;6295;49.452;8.466;2023-06-04T11:42:09;3.30;;;2.57;;
12459;SDS011;6295;49.452;8.466;2023-06-04T11:46:12;5.50;;;2.50;;
12459;SDS011;6295;49.452;8.466;2023-06-04T11:50:14;4.83;;;2.50;;
12459;SDS011;6295;49.452;8.466;2023-06-04T11:54:19;4.93;;;2.60;;
12459;SDS011;6295;49.452;8.466;2023-06-04T11:58:22;3.77;;;2.23;;
12459;SDS011;6295;49.452;8.466;2023-06-04T12:02:25;4.77;;;2.60;;
12459;SDS011;6295;49.452;8.466;2023-06-04T12:06:28;3.93;;;2.70;;
12459;SDS011;6295;49.452;8.466;2023-06-04T12:10:35;2.60;;;2.40;;
12459;SDS011;6295;49.452;8.466;2023-06-04T12:14:38;3.30;;;2.63;;
12459;SDS011;6295;49.452;8.466;2023-06-04T12:18:43;2.70;;;2.50;;
12459;SDS011;6295;49.452;8.466;2023-06-04T12:22:45;5.10;;;2.90;;
12459;SDS011;6295;49.452;8.466;2023-06-04T12:26:49;4.10;;;2.87;;
12459;SDS011;6295;49.452;8.466;2023-06-04T12:31:02;5.60;;;2.93;;
12459;SDS011;6295;49.452;8.466;2023-06-04T12:35:05;3.10;;;2.80;;
12459;SDS011;6295;49.452;8.466;2023-06-04T12:39:07;3.20;;;2.70;;
12459;SDS011;6295;49.452;8.466;2023-06-04T12:43:11;3.50;;;2.50;;
12459;SDS011;6295;49.452;8.466;2023-06-04T12:47:15;4.03;;;3.60;;
12459;SDS011;6295;49.452;8.466;2023-06-04T12:51:17;3.43;;;2.93;;
12459;SDS011;6295;49.452;8.466;2023-06-04T12:55:20;4.27;;;2.73;;
12459;SDS011;6295;49.452;8.466;2023-06-04T12:59:24;3.67;;;2.77;;
12459;SDS011;6295;49.452;8.466;2023-06-04T13:03:27;3.37;;;2.63;;
12459;SDS011;6295;49.452;8.466;2023-06-04T13:07:29;2.83;;;2.53;;
12459;SDS011;6295;49.452;8.466;2023-06-04T13:11:31;4.73;;;2.83;;
12459;SDS011;6295;49.452;8.466;2023-06-04T13:15:37;3.13;;;2.80;;
12459;SDS011;6295;49.452;8.466;2023-06-04T13:19:41;3.20;;;2.80;;
12459;SDS011;6295;49.452;8.466;2023-06-04T13:23:43;3.27;;;2.90;;
12459;SDS011;6295;49.452;8.466;2023-06-04T13:27:47;4.80;;;2.77;;
12459;SDS011;6295;49.452;8.466;2023-06-04T13:31:51;5.53;;;2.73;;
12459;SDS011;6295;49.452;8.466;2023-06-04T13:35:54;3.27;;;2.97;;
12459;SDS011;6295;49.452;8.466;2023-06-04T13:39:57;3.00;;;2.70;;
12459;SDS011;6295;49.452;8.466;2023-06-04T13:43:59;2.90;;;2.70;;
12459;SDS011;6295;49.452;8.466;2023-06-04T13:48:03;3.03;;;2.70;;
12459;SDS011;6295;49.452;8.466;2023-06-04T13:52:07;4.67;;;2.80;;
12459;SDS011;6295;49.452;8.466;2023-06-04T13:56:09;3.70;;;3.23;;
12459;SDS011;6295;49.452;8.466;2023-06-04T14:00:13;3.67;;;2.80;;
12459;SDS011;6295;49.452;8.466;2023-06-04T14:04:17;3.23;;;2.93;;
12459;SDS011;6295;49.452;8.466;2023-06-04T14:08:19;5.33;;;3.90;;
12459;SDS011;6295;49.452;8.466;2023-06-04T14:12:21;8.40;;;7.00;;
12459;SDS011;6295;49.452;8.466;2023-06-04T14:16:24;17.80;;;16.00;;
12459;SDS011;6295;49.452;8.466;2023-06-04T14:20:28;19.13;;;13.83;;
12459;SDS011;6295;49.452;8.466;2023-06-04T14:24:31;7.83;;;6.40;;
12459;SDS011;6295;49.452;8.466;2023-06-04T14:28:33;4.10;;;3.63;;
12459;SDS011;6295;49.452;8.466;2023-06-04T14:32:36;4.60;;;4.07;;
12459;SDS011;6295;49.452;8.466;2023-06-04T14:36:40;6.20;;;3.30;;
12459;SDS011;6295;49.452;8.466;2023-06-04T14:40:42;5.20;;;3.93;;
12459;SDS011;6295;49.452;8.466;2023-06-04T14:44:45;4.50;;;3.20;;
12459;SDS011;6295;49.452;8.466;2023-06-04T14:48:49;3.53;;;2.60;;
12459;SDS011;6295;49.452;8.466;2023-06-04T14:52:58;3.37;;;2.30;;
12459;SDS011;6295;49.452;8.466;2023-06-04T14:57:08;4.20;;;2.60;;
12459;SDS011;6295;49.452;8.466;2023-06-04T15:01:13;3.20;;;2.90;;
12459;SDS011;6295;49.452;8.466;2023-06-04T15:05:19;2.93;;;2.70;;
12459;SDS011;6295;49.452;8.466;2023-06-04T15:09:24;2.90;;;2.60;;
12459;SDS011;6295;49.452;8.466;2023-06-04T15:13:28;4.47;;;2.57;;
12459;SDS011;6295;49.452;8.466;2023-06-04T15:17:30;3.07;;;2.70;;
12459;SDS011;6295;49.452;8.466;2023-06-04T15:21:34;2.43;;;2.23;;
12459;SDS011;6295;49.452;8.466;2023-06-04T15:25:43;3.20;;;2.50;;
12459;SDS011;6295;49.452;8.466;2023-06-04T15:29:49;3.37;;;2.70;;
12459;SDS011;6295;49.452;8.466;2023-06-04T15:33:53;2.40;;;2.20;;
12459;SDS011;6295;49.452;8.466;2023-06-04T15:37:55;2.70;;;2.50;;
12459;SDS011;6295;49.452;8.466;2023-06-04T15:41:59;2.67;;;2.40;;
12459;SDS011;6295;49.452;8.466;2023-06-04T15:46:01;2.80;;;2.60;;
12459;SDS011;6295;49.452;8.466;2023-06-04T15:50:04;4.17;;;2.37;;
12459;SDS011;6295;49.452;8.466;2023-06-04T15:54:07;3.03;;;2.47;;
12459;SDS011;6295;49.452;8.466;2023-06-04T15:58:11;2.73;;;2.40;;
12459;SDS011;6295;49.452;8.466;2023-06-04T16:02:13;5.87;;;3.33;;
12459;SDS011;6295;49.452;8.466;2023-06-04T16:06:15;4.37;;;2.80;;
12459;SDS011;6295;49.452;8.466;2023-06-04T16:10:17;3.73;;;2.80;;
12459;SDS011;6295;49.452;8.466;2023-06-04T16:14:21;6.10;;;3.40;;
12459;SDS011;6295;49.452;8.466;2023-06-04T16:18:24;6.03;;;4.10;;
12459;SDS011;6295;49.452;8.466;2023-06-04T16:22:26;7.67;;;4.43;;
12459;SDS011;6295;49.452;8.466;2023-06-04T16:26:28;4.60;;;3.37;;
12459;SDS011;6295;49.452;8.466;2023-06-04T16:30:32;3.30;;;3.00;;
12459;SDS011;6295;49.452;8.466;2023-06-04T16:34:34;3.33;;;2.83;;
12459;SDS011;6295;49.452;8.466;2023-06-04T16:38:37;4.07;;;2.60;;
12459;SDS011;6295;49.452;8.466;2023-06-04T16:42:39;4.03;;;2.83;;
12459;SDS011;6295;49.452;8.466;2023-06-04T16:46:42;4.30;;;2.90;;
12459;SDS011;6295;49.452;8.466;2023-06-04T16:50:45;3.53;;;2.77;;
12459;SDS011;6295;49.452;8.466;2023-06-04T16:54:47;3.57;;;3.03;;
12459;SDS011;6295;49.452;8.466;2023-06-04T16:58:49;3.00;;;2.57;;
12459;SDS011;6295;49.452;8.466;2023-06-04T17:02:53;3.60;;;3.10;;
12459;SDS011;6295;49.452;8.466;2023-06-04T17:06:56;3.47;;;2.80;;
12459;SDS011;6295;49.452;8.466;2023-06-04T17:10:59;3.23;;;2.43;;
12459;SDS011;6295;49.452;8.466;2023-06-04T17:15:01;4.23;;;2.40;;
12459;SDS011;6295;49.452;8.466;2023-06-04T17:19:05;4.83;;;3.03;;
12459;SDS011;6295;49.452;8.466;2023-06-04T17:23:20;4.57;;;4.17;;
12459;SDS011;6295;49.452;8.466;2023-06-04T17:27:22;3.67;;;3.37;;
12459;SDS011;6295;49.452;8.466;2023-06-04T17:31:25;4.73;;;3.60;;
12459;SDS011;6295;49.452;8.466;2023-06-04T17:35:29;6.93;;;3.10;;
12459;SDS011;6295;49.452;8.466;2023-06-04T17:39:31;4.43;;;3.20;;
12459;SDS011;6295;49.452;8.466;2023-06-04T17:43:33;4.10;;;3.73;;
12459;SDS011;6295;49.452;8.466;2023-06-04T17:47:36;3.10;;;2.80;;
12459;SDS011;6295;49.452;8.466;2023-06-04T17:51:42;4.50;;;3.83;;
12459;SDS011;6295;49.452;8.466;2023-06-04T17:55:46;3.60;;;3.30;;
12459;SDS011;6295;49.452;8.466;2023-06-04T17:59:48;3.60;;;3.20;;
12459;SDS011;6295;49.452;8.466;2023-06-04T18:03:50;2.93;;;2.73;;
12459;SDS011;6295;49.452;8.466;2023-06-04T18:07:54;3.13;;;2.83;;
12459;SDS011;6295;49.452;8.466;2023-06-04T18:11:56;3.70;;;2.80;;
12459;SDS011;6295;49.452;8.466;2023-06-04T18:15:59;4.03;;;2.97;;
12459;SDS011;6295;49.452;8.466;2023-06-04T18:20:01;2.73;;;2.53;;
12459;SDS011;6295;49.452;8.466;2023-06-04T18:24:04;4.33;;;2.70;;
12459;SDS011;6295;49.452;8.466;2023-06-04T18:28:07;3.37;;;2.70;;
12459;SDS011;6295;49.452;8.466;2023-06-04T18:32:09;2.70;;;2.50;;
12459;SDS011;6295;49.452;8.466;2023-06-04T18:36:12;2.70;;;2.50;;
12459;SDS011;6295;49.452;8.466;2023-06-04T18:40:15;2.73;;;2.53;;
12459;SDS011;6295;49.452;8.466;2023-06-04T18:44:18;3.17;;;2.70;;
12459;SDS011;6295;49.452;8.466;2023-06-04T18:48:20;2.77;;;2.50;;
12459;SDS011;6295;49.452;8.466;2023-06-04T18:52:22;2.90;;;2.60;;
